createdAt,value
2022-11-18T00:01:52.624Z,9.10
2022-11-18T00:04:22.798Z,9.10
2022-11-18T00:06:51.492Z,9.00
2022-11-18T00:09:20.020Z,9.00
2022-11-18T00:12:06.079Z,9.00
2022-11-18T00:14:35.992Z,9.00
2022-11-18T00:17:06.760Z,9.00
2022-11-18T00:19:38.845Z,8.90
2022-11-18T00:22:14.692Z,8.90
2022-11-18T00:24:49.292Z,9.00
2022-11-18T00:27:17.598Z,8.90
2022-11-18T00:29:47.499Z,9.00
2022-11-18T00:32:16.144Z,9.00
2022-11-18T00:34:44.667Z,9.00
2022-11-18T00:37:13.035Z,9.00
2022-11-18T00:39:42.542Z,8.90
2022-11-18T00:42:28.102Z,9.00
2022-11-18T00:44:57.997Z,9.00
2022-11-18T00:47:26.717Z,9.00
2022-11-18T00:49:55.214Z,9.00
2022-11-18T00:52:24.022Z,9.00
2022-11-18T00:54:52.616Z,9.00
2022-11-18T00:57:21.195Z,9.00
2022-11-18T00:59:49.493Z,9.00
2022-11-18T01:02:21.700Z,8.80
2022-11-18T01:04:50.030Z,8.70
2022-11-18T01:07:18.516Z,8.80
2022-11-18T01:09:46.910Z,8.80
2022-11-18T01:12:32.865Z,8.80
2022-11-18T01:15:01.461Z,8.80
2022-11-18T01:17:33.324Z,8.80
2022-11-18T01:20:01.712Z,8.80
2022-11-18T01:22:31.113Z,8.90
2022-11-18T01:24:59.430Z,8.90
2022-11-18T01:27:27.955Z,8.80
2022-11-18T01:29:56.492Z,8.80
2022-11-18T01:32:25.786Z,8.80
2022-11-18T01:34:55.714Z,8.80
2022-11-18T01:37:24.209Z,8.80
2022-11-18T01:39:52.553Z,8.80
2022-11-18T01:42:23.697Z,8.80
2022-11-18T01:45:09.689Z,8.80
2022-11-18T01:47:43.851Z,8.90
2022-11-18T01:50:14.654Z,8.90
2022-11-18T01:52:48.741Z,9.00
2022-11-18T01:55:26.168Z,9.00
2022-11-18T01:58:02.611Z,9.00
2022-11-18T02:00:31.070Z,9.00
2022-11-18T02:03:03.531Z,9.00
2022-11-18T02:05:34.860Z,9.00
2022-11-18T02:08:04.541Z,9.00
2022-11-18T02:10:34.315Z,9.00
2022-11-18T02:13:04.907Z,9.00
2022-11-18T02:15:56.941Z,8.90
2022-11-18T02:18:38.687Z,8.90
2022-11-18T02:21:23.103Z,8.90
2022-11-18T02:24:30.120Z,8.80
2022-11-18T02:27:53.911Z,8.80
2022-11-18T02:30:24.315Z,8.80
2022-11-18T02:32:57.653Z,8.90
2022-11-18T02:35:31.406Z,8.80
2022-11-18T02:38:03.969Z,8.80
2022-11-18T02:40:37.210Z,8.80
2022-11-18T02:43:09.881Z,8.80
2022-11-18T02:45:42.424Z,8.80
2022-11-18T02:48:13.618Z,8.90
2022-11-18T02:50:45.876Z,8.90
2022-11-18T02:53:18.023Z,8.90
2022-11-18T02:55:49.724Z,9.00
2022-11-18T02:58:21.804Z,9.00
2022-11-18T03:00:58.587Z,8.90
2022-11-18T03:03:29.572Z,8.90
2022-11-18T03:06:17.805Z,8.90
2022-11-18T03:08:53.712Z,8.90
2022-11-18T03:11:25.691Z,8.80
2022-11-18T03:14:20.495Z,8.80
2022-11-18T03:17:01.346Z,8.80
2022-11-18T03:19:45.500Z,8.80
2022-11-18T03:22:21.204Z,8.80
2022-11-18T03:24:57.451Z,8.80
2022-11-18T03:27:31.939Z,8.80
2022-11-18T03:30:12.507Z,8.80
2022-11-18T03:32:47.618Z,8.80
2022-11-18T03:35:22.822Z,8.90
2022-11-18T03:37:55.931Z,8.80
2022-11-18T03:40:27.800Z,8.80
2022-11-18T03:43:04.781Z,8.80
2022-11-18T03:45:38.156Z,8.80
2022-11-18T03:48:15.342Z,8.80
2022-11-18T03:50:49.102Z,8.70
2022-11-18T03:53:20.401Z,8.70
2022-11-18T03:55:54.075Z,8.70
2022-11-18T03:58:28.087Z,8.60
2022-11-18T04:01:05.643Z,8.70
2022-11-18T04:03:38.254Z,8.70
2022-11-18T04:06:17.013Z,8.70
2022-11-18T04:08:53.713Z,8.70
2022-11-18T04:11:46.351Z,8.70
2022-11-18T04:14:15.743Z,8.70
2022-11-18T04:16:45.642Z,8.60
2022-11-18T04:19:16.448Z,8.60
2022-11-18T04:21:46.689Z,8.60
2022-11-18T04:24:15.186Z,8.50
2022-11-18T04:26:43.681Z,8.50
2022-11-18T04:29:11.946Z,8.50
2022-11-18T04:31:40.215Z,8.50
2022-11-18T04:34:08.587Z,8.40
2022-11-18T04:36:38.298Z,8.50
2022-11-18T04:39:07.199Z,8.50
2022-11-18T04:41:57.706Z,8.60
2022-11-18T04:44:27.824Z,8.50
2022-11-18T04:46:57.538Z,8.50
2022-11-18T04:49:26.846Z,8.60
2022-11-18T04:51:57.743Z,8.50
2022-11-18T04:54:27.267Z,8.50
2022-11-18T04:56:56.770Z,8.60
2022-11-18T04:59:27.857Z,8.50
2022-11-18T05:01:57.399Z,8.50
2022-11-18T05:04:30.181Z,8.40
2022-11-18T05:07:01.302Z,8.30
2022-11-18T05:09:32.318Z,8.30
2022-11-18T05:12:18.703Z,8.30
2022-11-18T05:14:50.387Z,8.30
2022-11-18T05:17:20.238Z,8.30
2022-11-18T05:19:48.643Z,8.30
2022-11-18T05:22:18.386Z,8.20
2022-11-18T05:24:46.769Z,8.20
2022-11-18T05:27:15.605Z,8.10
2022-11-18T05:29:44.089Z,8.10
2022-11-18T05:32:12.955Z,8.10
2022-11-18T05:34:41.983Z,8.00
2022-11-18T05:37:10.436Z,8.10
2022-11-18T05:39:40.344Z,8.10
2022-11-18T05:42:22.845Z,8.10
2022-11-18T05:44:57.430Z,8.10
2022-11-18T05:47:26.461Z,8.10
2022-11-18T05:49:54.723Z,8.10
2022-11-18T05:52:23.039Z,8.10
2022-11-18T05:54:53.564Z,8.20
2022-11-18T05:57:21.885Z,8.20
2022-11-18T05:59:50.247Z,8.20
2022-11-18T06:02:22.128Z,8.20
2022-11-18T06:04:54.792Z,8.40
2022-11-18T06:07:28.349Z,8.20
2022-11-18T06:10:05.546Z,8.20
2022-11-18T06:12:40.577Z,8.30
2022-11-18T06:15:14.753Z,8.30
2022-11-18T06:17:50.157Z,8.30
2022-11-18T06:20:20.148Z,8.30
2022-11-18T06:22:49.582Z,8.40
2022-11-18T06:25:19.451Z,8.30
2022-11-18T06:27:48.700Z,8.30
2022-11-18T06:30:17.487Z,8.40
2022-11-18T06:32:45.835Z,8.40
2022-11-18T06:35:14.209Z,8.40
2022-11-18T06:37:42.490Z,8.30
2022-11-18T06:40:14.727Z,8.20
2022-11-18T06:43:02.191Z,8.20
2022-11-18T06:45:31.215Z,8.30
2022-11-18T06:48:00.404Z,8.20
2022-11-18T06:50:29.239Z,8.30
2022-11-18T06:52:58.067Z,8.30
2022-11-18T06:55:26.467Z,8.30
2022-11-18T06:57:57.737Z,8.30
2022-11-18T07:00:27.026Z,8.30
2022-11-18T07:02:55.343Z,8.30
2022-11-18T07:05:23.659Z,8.30
2022-11-18T07:07:52.088Z,8.40
2022-11-18T07:10:20.820Z,8.40
2022-11-18T07:12:50.271Z,8.30
2022-11-18T07:15:20.061Z,8.20
2022-11-18T07:17:48.431Z,8.10
2022-11-18T07:20:17.134Z,8.00
2022-11-18T07:22:45.530Z,8.00
2022-11-18T07:25:13.947Z,7.90
2022-11-18T07:27:42.292Z,7.90
2022-11-18T07:30:14.374Z,7.90
2022-11-18T07:32:44.174Z,7.90
2022-11-18T07:35:12.516Z,7.90
2022-11-18T07:37:40.825Z,8.00
2022-11-18T07:40:11.306Z,7.90
2022-11-18T07:42:43.575Z,7.90
2022-11-18T07:45:13.271Z,7.90
2022-11-18T07:47:42.970Z,7.90
2022-11-18T07:50:11.406Z,7.90
2022-11-18T07:52:40.047Z,8.00
2022-11-18T07:55:10.626Z,8.00
2022-11-18T07:57:38.899Z,8.10
2022-11-18T08:00:09.130Z,8.20
2022-11-18T08:02:37.615Z,8.30
2022-11-18T08:05:11.069Z,8.20
2022-11-18T08:07:43.135Z,8.20
2022-11-18T08:10:11.816Z,8.20
2022-11-18T08:12:42.254Z,8.30
2022-11-18T08:15:11.837Z,8.50
2022-11-18T08:17:40.185Z,8.70
2022-11-18T08:20:12.770Z,8.70
2022-11-18T08:22:41.158Z,8.60
2022-11-18T08:25:11.880Z,8.60
2022-11-18T08:27:40.364Z,8.60
2022-11-18T08:30:10.510Z,8.70
2022-11-18T08:32:38.847Z,8.90
2022-11-18T08:35:11.304Z,8.90
2022-11-18T08:37:39.929Z,8.90
2022-11-18T08:40:09.750Z,9.00
2022-11-18T08:42:38.881Z,9.10
2022-11-18T08:45:09.438Z,9.10
2022-11-18T08:47:38.370Z,9.10
2022-11-18T08:50:10.964Z,9.20
2022-11-18T08:52:39.610Z,9.20
2022-11-18T08:55:08.427Z,9.30
2022-11-18T08:57:37.841Z,9.20
2022-11-18T09:00:08.299Z,9.20
2022-11-18T09:02:37.268Z,9.20
2022-11-18T09:05:06.290Z,9.20
2022-11-18T09:07:36.136Z,9.20
2022-11-18T09:10:04.926Z,9.20
2022-11-18T09:12:33.731Z,9.20
2022-11-18T09:15:17.817Z,9.20
2022-11-18T09:17:46.411Z,9.10
2022-11-18T09:20:14.874Z,9.00
2022-11-18T09:22:44.820Z,9.00
2022-11-18T09:25:13.225Z,9.00
2022-11-18T09:27:42.605Z,9.10
2022-11-18T09:30:12.414Z,9.00
2022-11-18T09:32:40.803Z,9.00
2022-11-18T09:35:10.199Z,9.10
2022-11-18T09:37:38.541Z,9.10
2022-11-18T09:40:18.096Z,9.10
2022-11-18T09:42:59.008Z,9.10
2022-11-18T09:45:34.629Z,9.20
2022-11-18T09:48:14.652Z,9.20
2022-11-18T09:50:50.420Z,9.20
2022-11-18T09:53:22.846Z,9.30
2022-11-18T09:55:54.174Z,9.40
2022-11-18T09:58:30.545Z,9.30
2022-11-18T10:00:59.156Z,9.30
2022-11-18T10:03:30.920Z,9.40
2022-11-18T10:06:07.312Z,9.50
2022-11-18T10:08:43.695Z,9.60
2022-11-18T10:11:18.876Z,9.70
2022-11-18T10:13:58.419Z,9.70
2022-11-18T10:16:42.276Z,9.80
2022-11-18T10:19:27.302Z,9.70
2022-11-18T10:22:22.640Z,9.70
2022-11-18T10:24:54.625Z,9.80
2022-11-18T10:27:28.757Z,9.70
2022-11-18T10:29:59.436Z,9.80
2022-11-18T10:32:28.301Z,9.70
2022-11-18T10:34:59.489Z,9.70
2022-11-18T10:38:05.791Z,9.80
2022-11-18T10:40:27.910Z,9.70
2022-11-18T10:42:58.131Z,9.80
2022-11-18T10:45:29.737Z,9.80
2022-11-18T10:48:12.134Z,9.90
2022-11-18T10:50:55.679Z,9.80
2022-11-18T10:53:33.044Z,9.70
2022-11-18T10:56:03.074Z,9.70
2022-11-18T10:58:38.479Z,9.60
2022-11-18T11:01:08.875Z,9.70
2022-11-18T11:03:39.807Z,9.50
2022-11-18T11:06:35.020Z,9.50
2022-11-18T11:09:08.107Z,9.40
2022-11-18T11:11:40.135Z,9.40
2022-11-18T11:14:28.063Z,9.30
2022-11-18T11:17:06.217Z,9.30
2022-11-18T11:19:52.178Z,9.20
2022-11-18T11:22:21.558Z,9.20
2022-11-18T11:24:50.073Z,9.30
2022-11-18T11:30:26.648Z,9.60
2022-11-18T11:33:31.116Z,9.70
2022-11-18T11:36:32.827Z,9.70
2022-11-18T11:39:41.920Z,9.80
2022-11-18T11:42:26.115Z,9.90
2022-11-18T11:45:12.689Z,9.90
2022-11-18T11:48:00.953Z,9.80
2022-11-18T11:51:00.149Z,9.80
2022-11-18T11:53:51.328Z,9.70
2022-11-18T11:56:30.337Z,9.60
2022-11-18T11:59:20.947Z,9.40
2022-11-18T12:02:05.517Z,9.40
2022-11-18T12:04:43.629Z,9.50
2022-11-18T12:07:20.708Z,9.60
2022-11-18T12:10:18.445Z,9.70
2022-11-18T12:12:57.775Z,9.80
2022-11-18T12:15:46.096Z,9.80
2022-11-18T12:18:21.029Z,9.80
2022-11-18T12:20:52.296Z,9.90
2022-11-18T12:23:23.338Z,9.80
2022-11-18T12:26:09.029Z,9.80
2022-11-18T12:28:42.228Z,9.90
2022-11-18T12:31:36.999Z,10.10
2022-11-18T12:34:44.268Z,10.10
2022-11-18T12:37:59.830Z,10.00
2022-11-18T12:40:47.200Z,9.80
2022-11-18T12:44:06.846Z,9.70
2022-11-18T12:46:59.629Z,9.70
2022-11-18T12:50:14.151Z,10.00
2022-11-18T12:52:55.082Z,10.20
2022-11-18T12:55:33.378Z,10.40
2022-11-18T12:58:01.794Z,10.40
2022-11-18T13:03:34.348Z,10.70
2022-11-18T13:06:08.676Z,10.80
2022-11-18T13:08:38.877Z,10.90
2022-11-18T13:11:33.538Z,10.90
2022-11-18T13:14:21.097Z,10.60
2022-11-18T13:17:07.841Z,10.60
2022-11-18T13:19:37.726Z,10.60
2022-11-18T13:22:36.456Z,10.70
2022-11-18T13:25:06.105Z,10.80
2022-11-18T13:27:47.052Z,10.80
2022-11-18T13:30:18.216Z,10.60
2022-11-18T13:32:51.486Z,10.40
2022-11-18T13:35:27.282Z,10.40
2022-11-18T13:38:02.051Z,10.10
2022-11-18T13:40:33.459Z,10.10
2022-11-18T13:43:02.346Z,9.90
2022-11-18T13:45:34.287Z,9.80
2022-11-18T13:48:09.719Z,9.60
2022-11-18T13:50:43.422Z,9.60
2022-11-18T13:53:29.148Z,9.60
2022-11-18T13:56:01.772Z,9.60
2022-11-18T13:59:02.825Z,9.70
2022-11-18T14:01:31.766Z,9.70
2022-11-18T14:04:03.117Z,9.80
2022-11-18T14:06:36.197Z,9.90
2022-11-18T14:09:20.384Z,9.90
2022-11-18T14:12:02.974Z,9.80
2022-11-18T14:14:35.440Z,9.80
2022-11-18T14:17:20.520Z,9.80
2022-11-18T14:19:53.259Z,9.80
2022-11-18T14:22:25.711Z,9.80
2022-11-18T14:24:59.637Z,9.80
2022-11-18T14:27:39.634Z,9.80
2022-11-18T14:30:42.802Z,9.80
2022-11-18T14:33:19.051Z,9.80
2022-11-18T14:35:55.963Z,9.70
2022-11-18T14:41:43.832Z,9.40
2022-11-18T14:44:14.443Z,9.30
2022-11-18T14:46:46.838Z,9.20
2022-11-18T14:49:22.315Z,9.20
2022-11-18T14:51:51.901Z,9.10
2022-11-18T14:54:26.983Z,9.10
2022-11-18T14:56:59.965Z,9.10
2022-11-18T14:59:29.784Z,9.10
2022-11-18T15:01:58.828Z,9.20
2022-11-18T15:04:27.825Z,9.20
2022-11-18T15:06:56.492Z,9.30
2022-11-18T15:09:28.338Z,9.30
2022-11-18T15:11:56.788Z,9.20
2022-11-18T15:14:26.361Z,9.20
2022-11-18T15:16:55.324Z,9.20
2022-11-18T15:19:24.027Z,9.20
2022-11-18T15:21:52.749Z,9.20
2022-11-18T15:24:21.541Z,9.20
2022-11-18T15:26:51.667Z,9.20
2022-11-18T15:29:24.364Z,9.10
2022-11-18T15:31:53.512Z,9.10
2022-11-18T15:34:23.116Z,9.20
2022-11-18T15:36:54.703Z,9.10
2022-11-18T15:39:23.397Z,9.00
2022-11-18T15:41:55.244Z,9.00
2022-11-18T15:44:25.027Z,8.90
2022-11-18T15:46:53.560Z,8.90
2022-11-18T15:49:22.210Z,8.80
2022-11-18T15:51:50.795Z,8.80
2022-11-18T15:54:19.787Z,8.70
2022-11-18T15:56:48.585Z,8.70
2022-11-18T15:59:18.667Z,8.60
2022-11-18T16:01:49.043Z,8.50
2022-11-18T16:04:19.918Z,8.50
2022-11-18T16:06:49.600Z,8.50
2022-11-18T16:09:19.677Z,8.40
2022-11-18T16:12:05.868Z,8.40
2022-11-18T16:14:38.512Z,8.40
2022-11-18T16:17:06.982Z,8.40
2022-11-18T16:19:36.485Z,8.40
2022-11-18T16:22:05.008Z,8.40
2022-11-18T16:24:33.744Z,8.50
2022-11-18T16:27:04.716Z,8.40
2022-11-18T16:29:36.907Z,8.50
2022-11-18T16:32:15.083Z,8.50
2022-11-18T16:34:44.061Z,8.50
2022-11-18T16:37:12.510Z,8.50
2022-11-18T16:39:40.942Z,8.50
2022-11-18T16:42:12.435Z,8.50
2022-11-18T16:44:42.938Z,8.50
2022-11-18T16:47:15.134Z,8.50
2022-11-18T16:49:46.896Z,8.60
2022-11-18T16:52:15.459Z,8.50
2022-11-18T16:54:46.149Z,8.60
2022-11-18T16:57:15.742Z,8.60
2022-11-18T16:59:45.611Z,8.60
2022-11-18T17:02:15.626Z,8.70
2022-11-18T17:04:44.703Z,8.60
2022-11-18T17:07:13.445Z,8.60
2022-11-18T17:09:42.026Z,8.70
2022-11-18T17:12:12.953Z,8.70
2022-11-18T17:14:41.357Z,8.70
2022-11-18T17:17:11.205Z,8.70
2022-11-18T17:19:39.709Z,8.70
2022-11-18T17:22:08.190Z,8.70
2022-11-18T17:24:37.591Z,8.60
2022-11-18T17:27:06.037Z,8.60
2022-11-18T17:29:34.665Z,8.60
2022-11-18T17:32:03.102Z,8.60
2022-11-18T17:34:33.060Z,8.50
2022-11-18T17:37:06.592Z,8.50
2022-11-18T17:39:35.838Z,8.60
2022-11-18T17:42:17.816Z,8.50
2022-11-18T17:44:46.750Z,8.50
2022-11-18T17:47:15.225Z,8.50
2022-11-18T17:49:45.628Z,8.50
2022-11-18T17:52:14.087Z,8.40
2022-11-18T17:54:43.607Z,8.40
2022-11-18T17:57:12.200Z,8.40
2022-11-18T17:59:40.783Z,8.40
2022-11-18T18:02:10.789Z,8.40
2022-11-18T18:04:39.252Z,8.40
2022-11-18T18:07:09.370Z,8.50
2022-11-18T18:09:38.023Z,8.50
2022-11-18T18:12:27.597Z,8.50
2022-11-18T18:14:55.115Z,8.50
2022-11-18T18:17:24.964Z,8.60
2022-11-18T18:19:54.549Z,8.60
2022-11-18T18:22:24.441Z,8.60
2022-11-18T18:24:53.194Z,8.60
2022-11-18T18:27:21.714Z,8.60
2022-11-18T18:29:50.201Z,8.60
2022-11-18T18:32:18.706Z,8.60
2022-11-18T18:34:47.194Z,8.60
2022-11-18T18:37:15.629Z,8.60
2022-11-18T18:39:45.576Z,8.60
2022-11-18T18:42:14.136Z,8.60
2022-11-18T18:45:05.488Z,8.60
2022-11-18T18:47:35.906Z,8.60
2022-11-18T18:50:05.028Z,8.60
2022-11-18T18:52:35.803Z,8.60
2022-11-18T18:55:06.840Z,8.50
2022-11-18T18:57:37.528Z,8.50
2022-11-18T19:00:08.123Z,8.50
2022-11-18T19:02:36.923Z,8.50
2022-11-18T19:05:06.485Z,8.50
2022-11-18T19:07:37.838Z,8.50
2022-11-18T19:10:09.229Z,8.50
2022-11-18T19:12:51.645Z,8.40
2022-11-18T19:15:23.001Z,8.40
2022-11-18T19:17:51.840Z,8.30
2022-11-18T19:20:36.757Z,8.20
2022-11-18T19:23:10.333Z,8.20
2022-11-18T19:25:43.870Z,8.10
2022-11-18T19:28:12.583Z,8.10
2022-11-18T19:30:41.645Z,8.10
2022-11-18T19:33:10.890Z,8.10
2022-11-18T19:35:39.364Z,8.10
2022-11-18T19:38:10.061Z,8.10
2022-11-18T19:40:42.231Z,8.10
2022-11-18T19:43:10.969Z,8.10
2022-11-18T19:45:39.503Z,8.00
2022-11-18T19:48:10.305Z,8.10
2022-11-18T19:50:39.486Z,8.00
2022-11-18T19:53:28.001Z,8.00
2022-11-18T19:55:59.968Z,8.00
2022-11-18T19:58:28.997Z,7.90
2022-11-18T20:00:57.679Z,7.90
2022-11-18T20:03:26.401Z,8.00
2022-11-18T20:05:55.094Z,8.00
2022-11-18T20:08:26.685Z,8.10
2022-11-18T20:10:56.413Z,8.10
2022-11-18T20:13:26.456Z,8.10
2022-11-18T20:15:57.105Z,8.20
2022-11-18T20:18:26.974Z,8.20
2022-11-18T20:20:55.577Z,8.10
2022-11-18T20:23:24.140Z,8.20
2022-11-18T20:25:52.644Z,8.10
2022-11-18T20:28:21.105Z,8.10
2022-11-18T20:30:55.537Z,8.10
2022-11-18T20:33:24.029Z,8.10
2022-11-18T20:35:52.658Z,8.20
2022-11-18T20:38:21.256Z,8.20
2022-11-18T20:40:49.899Z,8.20
2022-11-18T20:43:18.553Z,8.20
2022-11-18T20:45:56.049Z,8.10
2022-11-18T20:48:24.609Z,8.20
2022-11-18T20:50:53.292Z,8.20
2022-11-18T20:53:25.475Z,8.10
2022-11-18T20:55:53.939Z,8.10
2022-11-18T20:58:22.538Z,8.10
2022-11-18T21:00:51.221Z,8.10
2022-11-18T21:03:22.545Z,8.00
2022-11-18T21:05:51.710Z,8.00
2022-11-18T21:08:22.139Z,8.00
2022-11-18T21:10:50.729Z,8.00
2022-11-18T21:13:36.830Z,8.00
2022-11-18T21:16:05.909Z,8.00
2022-11-18T21:18:35.740Z,7.90
2022-11-18T21:21:23.692Z,7.90
2022-11-18T21:23:56.184Z,8.00
2022-11-18T21:26:25.986Z,7.90
2022-11-18T21:28:57.013Z,7.80
2022-11-18T21:31:29.501Z,7.80
2022-11-18T21:34:00.700Z,7.70
2022-11-18T21:36:29.820Z,7.70
2022-11-18T21:38:59.848Z,7.70
2022-11-18T21:41:28.711Z,7.60
2022-11-18T21:44:05.547Z,7.50
2022-11-18T21:46:36.497Z,7.40
2022-11-18T21:49:07.480Z,7.30
2022-11-18T21:51:37.664Z,7.20
2022-11-18T21:54:07.388Z,7.10
2022-11-18T21:56:35.862Z,7.00
2022-11-18T21:59:05.067Z,6.90
2022-11-18T22:01:34.611Z,6.80
2022-11-18T22:04:06.267Z,6.70
2022-11-18T22:06:36.465Z,6.60
2022-11-18T22:09:06.114Z,6.50
2022-11-18T22:11:34.835Z,6.50
2022-11-18T22:14:04.453Z,6.40
2022-11-18T22:16:33.092Z,6.40
2022-11-18T22:19:18.525Z,6.30
2022-11-18T22:21:51.206Z,6.30
2022-11-18T22:24:19.803Z,6.30
2022-11-18T22:26:48.360Z,6.20
2022-11-18T22:29:17.247Z,6.20
2022-11-18T22:31:46.882Z,6.20
2022-11-18T22:34:17.466Z,6.20
2022-11-18T22:36:49.663Z,6.10
2022-11-18T22:39:21.833Z,6.00
2022-11-18T22:42:09.940Z,5.90
2022-11-18T22:44:38.457Z,5.90
2022-11-18T22:47:07.017Z,5.80
2022-11-18T22:49:35.412Z,5.70
2022-11-18T22:52:05.858Z,5.60
2022-11-18T22:54:39.152Z,5.50
2022-11-18T22:57:08.818Z,5.40
2022-11-18T22:59:37.484Z,5.30
2022-11-18T23:02:06.291Z,5.20
2022-11-18T23:04:34.781Z,5.10
2022-11-18T23:07:08.189Z,5.10
2022-11-18T23:09:36.980Z,5.00
2022-11-18T23:12:24.652Z,5.10
2022-11-18T23:14:55.242Z,5.10
2022-11-18T23:17:23.878Z,5.20
2022-11-18T23:19:52.650Z,5.40
2022-11-18T23:22:24.533Z,5.50
2022-11-18T23:24:52.938Z,5.70
2022-11-18T23:27:21.392Z,5.70
2022-11-18T23:29:49.931Z,5.70
2022-11-18T23:32:18.384Z,5.80
2022-11-18T23:34:50.226Z,5.80
2022-11-18T23:37:18.796Z,5.80
2022-11-18T23:39:48.797Z,5.70
2022-11-18T23:42:18.085Z,5.70
2022-11-18T23:44:46.560Z,5.70
2022-11-18T23:47:20.425Z,5.50
2022-11-18T23:49:49.017Z,5.50
2022-11-18T23:52:18.682Z,5.30
2022-11-18T23:54:54.855Z,5.30
2022-11-18T23:57:23.584Z,5.30
2022-11-18T23:59:52.308Z,5.50
